sensor_id;sensor_type;location;lat;lon;timestamp;temperature;humidity
57566;DHT22;63999;43.882;-0.310;2023-02-22T00:00:53;12.30;80.90
57566;DHT22;63999;43.882;-0.310;2023-02-22T00:03:26;12.30;80.80
57566;DHT22;63999;43.882;-0.310;2023-02-22T00:06:03;12.40;80.90
57566;DHT22;63999;43.882;-0.310;2023-02-22T00:08:32;12.40;80.80
57566;DHT22;63999;43.882;-0.310;2023-02-22T00:11:00;12.30;80.80
57566;DHT22;63999;43.882;-0.310;2023-02-22T00:13:27;12.30;80.90
57566;DHT22;63999;43.882;-0.310;2023-02-22T00:15:57;12.30;81.00
57566;DHT22;63999;43.882;-0.310;2023-02-22T00:18:24;12.30;80.90
57566;DHT22;63999;43.882;-0.310;2023-02-22T00:20:53;12.30;81.00
57566;DHT22;63999;43.882;-0.310;2023-02-22T00:23:20;12.30;80.90
57566;DHT22;63999;43.882;-0.310;2023-02-22T00:25:49;12.30;80.90
57566;DHT22;63999;43.882;-0.310;2023-02-22T00:28:17;12.30;81.10
57566;DHT22;63999;43.882;-0.310;2023-02-22T00:30:43;12.30;81.20
57566;DHT22;63999;43.882;-0.310;2023-02-22T00:33:11;12.30;81.10
57566;DHT22;63999;43.882;-0.310;2023-02-22T00:35:37;12.30;81.00
57566;DHT22;63999;43.882;-0.310;2023-02-22T00:38:03;12.30;81.20
57566;DHT22;63999;43.882;-0.310;2023-02-22T00:40:31;12.30;81.00
57566;DHT22;63999;43.882;-0.310;2023-02-22T00:42:59;12.30;81.10
57566;DHT22;63999;43.882;-0.310;2023-02-22T00:45:27;12.30;81.10
57566;DHT22;63999;43.882;-0.310;2023-02-22T00:47:53;12.30;80.90
57566;DHT22;63999;43.882;-0.310;2023-02-22T00:50:20;12.30;81.00
57566;DHT22;63999;43.882;-0.310;2023-02-22T00:52:47;12.30;81.10
57566;DHT22;63999;43.882;-0.310;2023-02-22T00:55:21;12.30;80.90
57566;DHT22;63999;43.882;-0.310;2023-02-22T00:57:47;12.30;81.00
57566;DHT22;63999;43.882;-0.310;2023-02-22T01:00:17;12.30;81.20
57566;DHT22;63999;43.882;-0.310;2023-02-22T01:02:44;12.30;81.20
57566;DHT22;63999;43.882;-0.310;2023-02-22T01:05:12;12.30;81.20
57566;DHT22;63999;43.882;-0.310;2023-02-22T01:07:39;12.30;81.10
57566;DHT22;63999;43.882;-0.310;2023-02-22T01:10:07;12.30;81.20
57566;DHT22;63999;43.882;-0.310;2023-02-22T01:12:34;12.30;81.20
57566;DHT22;63999;43.882;-0.310;2023-02-22T01:15:05;12.20;81.20
57566;DHT22;63999;43.882;-0.310;2023-02-22T01:17:36;12.20;81.10
57566;DHT22;63999;43.882;-0.310;2023-02-22T01:20:03;12.20;81.20
57566;DHT22;63999;43.882;-0.310;2023-02-22T01:22:35;12.20;81.20
57566;DHT22;63999;43.882;-0.310;2023-02-22T01:25:02;12.30;81.20
57566;DHT22;63999;43.882;-0.310;2023-02-22T01:27:29;12.20;81.30
57566;DHT22;63999;43.882;-0.310;2023-02-22T01:29:54;12.30;81.30
57566;DHT22;63999;43.882;-0.310;2023-02-22T01:32:20;12.20;81.30
57566;DHT22;63999;43.882;-0.310;2023-02-22T01:34:46;12.30;81.40
57566;DHT22;63999;43.882;-0.310;2023-02-22T01:37:12;12.20;81.40
57566;DHT22;63999;43.882;-0.310;2023-02-22T01:39:37;12.20;81.30
57566;DHT22;63999;43.882;-0.310;2023-02-22T01:42:03;12.20;81.20
57566;DHT22;63999;43.882;-0.310;2023-02-22T01:44:35;12.20;81.40
57566;DHT22;63999;43.882;-0.310;2023-02-22T01:47:02;12.20;81.40
57566;DHT22;63999;43.882;-0.310;2023-02-22T01:52:04;12.20;81.40
57566;DHT22;63999;43.882;-0.310;2023-02-22T01:54:45;12.20;81.60
57566;DHT22;63999;43.882;-0.310;2023-02-22T01:57:22;12.20;81.40
57566;DHT22;63999;43.882;-0.310;2023-02-22T01:59:52;12.20;81.30
57566;DHT22;63999;43.882;-0.310;2023-02-22T02:02:19;12.20;81.40
57566;DHT22;63999;43.882;-0.310;2023-02-22T02:04:47;12.20;81.40
57566;DHT22;63999;43.882;-0.310;2023-02-22T02:07:16;12.20;81.40
57566;DHT22;63999;43.882;-0.310;2023-02-22T02:10:03;12.20;81.40
57566;DHT22;63999;43.882;-0.310;2023-02-22T02:12:32;12.20;81.40
57566;DHT22;63999;43.882;-0.310;2023-02-22T02:17:45;12.20;81.20
57566;DHT22;63999;43.882;-0.310;2023-02-22T02:20:52;12.20;81.10
57566;DHT22;63999;43.882;-0.310;2023-02-22T02:23:44;12.20;81.20
57566;DHT22;63999;43.882;-0.310;2023-02-22T02:40:36;12.20;81.40
57566;DHT22;63999;43.882;-0.310;2023-02-22T02:43:20;12.20;81.50
57566;DHT22;63999;43.882;-0.310;2023-02-22T02:46:05;12.20;81.40
57566;DHT22;63999;43.882;-0.310;2023-02-22T02:48:34;12.10;81.40
57566;DHT22;63999;43.882;-0.310;2023-02-22T02:51:02;12.20;81.40
57566;DHT22;63999;43.882;-0.310;2023-02-22T02:53:34;12.20;81.30
57566;DHT22;63999;43.882;-0.310;2023-02-22T02:56:01;12.20;81.50
57566;DHT22;63999;43.882;-0.310;2023-02-22T02:58:27;12.20;81.50
57566;DHT22;63999;43.882;-0.310;2023-02-22T03:00:56;12.20;81.60
57566;DHT22;63999;43.882;-0.310;2023-02-22T03:11:27;12.20;81.60
57566;DHT22;63999;43.882;-0.310;2023-02-22T03:22:02;12.20;81.60
57566;DHT22;63999;43.882;-0.310;2023-02-22T03:25:16;12.20;81.90
57566;DHT22;63999;43.882;-0.310;2023-02-22T03:27:27;12.20;81.80
57566;DHT22;63999;43.882;-0.310;2023-02-22T03:30:03;12.20;81.90
57566;DHT22;63999;43.882;-0.310;2023-02-22T03:32:34;12.20;81.60
57566;DHT22;63999;43.882;-0.310;2023-02-22T03:35:10;12.20;81.80
57566;DHT22;63999;43.882;-0.310;2023-02-22T03:37:41;12.20;81.80
57566;DHT22;63999;43.882;-0.310;2023-02-22T03:40:13;12.20;81.80
57566;DHT22;63999;43.882;-0.310;2023-02-22T03:42:44;12.10;81.80
57566;DHT22;63999;43.882;-0.310;2023-02-22T03:45:12;12.10;81.60
57566;DHT22;63999;43.882;-0.310;2023-02-22T03:47:50;12.20;81.80
57566;DHT22;63999;43.882;-0.310;2023-02-22T03:50:24;12.10;81.70
57566;DHT22;63999;43.882;-0.310;2023-02-22T03:52:54;12.10;81.70
57566;DHT22;63999;43.882;-0.310;2023-02-22T03:55:24;12.20;81.70
57566;DHT22;63999;43.882;-0.310;2023-02-22T03:57:55;12.10;81.60
57566;DHT22;63999;43.882;-0.310;2023-02-22T04:00:24;12.10;81.80
57566;DHT22;63999;43.882;-0.310;2023-02-22T04:02:50;12.10;81.90
57566;DHT22;63999;43.882;-0.310;2023-02-22T04:05:17;12.10;81.80
57566;DHT22;63999;43.882;-0.310;2023-02-22T04:07:43;12.10;81.80
57566;DHT22;63999;43.882;-0.310;2023-02-22T04:10:10;12.10;81.80
57566;DHT22;63999;43.882;-0.310;2023-02-22T04:12:36;12.10;81.90
57566;DHT22;63999;43.882;-0.310;2023-02-22T04:15:04;12.10;81.90
57566;DHT22;63999;43.882;-0.310;2023-02-22T04:17:31;12.10;81.90
57566;DHT22;63999;43.882;-0.310;2023-02-22T04:19:57;12.10;82.00
57566;DHT22;63999;43.882;-0.310;2023-02-22T04:22:23;12.10;81.90
57566;DHT22;63999;43.882;-0.310;2023-02-22T04:24:50;12.10;82.00
57566;DHT22;63999;43.882;-0.310;2023-02-22T04:27:16;12.10;82.00
57566;DHT22;63999;43.882;-0.310;2023-02-22T04:29:42;12.10;82.00
57566;DHT22;63999;43.882;-0.310;2023-02-22T04:32:08;12.10;82.00
57566;DHT22;63999;43.882;-0.310;2023-02-22T04:34:34;12.10;81.90
57566;DHT22;63999;43.882;-0.310;2023-02-22T04:37:00;12.10;82.00
57566;DHT22;63999;43.882;-0.310;2023-02-22T04:39:26;12.10;82.00
57566;DHT22;63999;43.882;-0.310;2023-02-22T04:41:52;12.10;82.10
57566;DHT22;63999;43.882;-0.310;2023-02-22T04:44:18;12.10;82.10
57566;DHT22;63999;43.882;-0.310;2023-02-22T04:46:44;12.10;82.10
57566;DHT22;63999;43.882;-0.310;2023-02-22T04:49:11;12.10;82.10
57566;DHT22;63999;43.882;-0.310;2023-02-22T04:51:37;12.10;82.10
57566;DHT22;63999;43.882;-0.310;2023-02-22T04:54:04;12.10;82.10
57566;DHT22;63999;43.882;-0.310;2023-02-22T04:56:31;12.10;82.10
57566;DHT22;63999;43.882;-0.310;2023-02-22T04:58:57;12.10;82.20
57566;DHT22;63999;43.882;-0.310;2023-02-22T05:01:22;12.10;82.20
57566;DHT22;63999;43.882;-0.310;2023-02-22T05:03:48;12.10;82.30
57566;DHT22;63999;43.882;-0.310;2023-02-22T05:06:16;12.10;82.20
57566;DHT22;63999;43.882;-0.310;2023-02-22T05:08:42;12.10;82.30
57566;DHT22;63999;43.882;-0.310;2023-02-22T05:11:08;12.10;82.30
57566;DHT22;63999;43.882;-0.310;2023-02-22T05:13:34;12.10;82.30
57566;DHT22;63999;43.882;-0.310;2023-02-22T05:16:00;12.10;82.20
57566;DHT22;63999;43.882;-0.310;2023-02-22T05:18:27;12.10;82.30
57566;DHT22;63999;43.882;-0.310;2023-02-22T05:20:52;12.10;82.30
57566;DHT22;63999;43.882;-0.310;2023-02-22T05:23:18;12.10;82.20
57566;DHT22;63999;43.882;-0.310;2023-02-22T05:25:44;12.10;82.20
57566;DHT22;63999;43.882;-0.310;2023-02-22T05:28:12;12.10;82.30
57566;DHT22;63999;43.882;-0.310;2023-02-22T05:30:39;12.10;82.40
57566;DHT22;63999;43.882;-0.310;2023-02-22T05:33:05;12.10;82.40
57566;DHT22;63999;43.882;-0.310;2023-02-22T05:35:31;12.10;82.20
57566;DHT22;63999;43.882;-0.310;2023-02-22T05:37:57;12.10;82.30
57566;DHT22;63999;43.882;-0.310;2023-02-22T05:40:27;12.10;82.40
57566;DHT22;63999;43.882;-0.310;2023-02-22T05:42:54;12.10;82.30
57566;DHT22;63999;43.882;-0.310;2023-02-22T05:45:23;12.10;82.40
57566;DHT22;63999;43.882;-0.310;2023-02-22T05:47:50;12.10;82.40
57566;DHT22;63999;43.882;-0.310;2023-02-22T05:50:17;12.10;82.30
57566;DHT22;63999;43.882;-0.310;2023-02-22T05:52:44;12.10;82.30
57566;DHT22;63999;43.882;-0.310;2023-02-22T05:55:12;12.10;82.50
57566;DHT22;63999;43.882;-0.310;2023-02-22T05:57:39;12.10;82.20
57566;DHT22;63999;43.882;-0.310;2023-02-22T06:00:05;12.10;82.40
57566;DHT22;63999;43.882;-0.310;2023-02-22T06:02:33;12.10;82.40
57566;DHT22;63999;43.882;-0.310;2023-02-22T06:05:00;12.10;82.40
57566;DHT22;63999;43.882;-0.310;2023-02-22T06:07:26;12.10;82.40
57566;DHT22;63999;43.882;-0.310;2023-02-22T06:09:52;12.10;82.30
57566;DHT22;63999;43.882;-0.310;2023-02-22T06:12:18;12.10;82.30
57566;DHT22;63999;43.882;-0.310;2023-02-22T06:14:45;12.10;82.40
57566;DHT22;63999;43.882;-0.310;2023-02-22T06:17:13;12.10;82.50
57566;DHT22;63999;43.882;-0.310;2023-02-22T06:19:41;12.10;82.40
57566;DHT22;63999;43.882;-0.310;2023-02-22T06:22:18;12.10;82.50
57566;DHT22;63999;43.882;-0.310;2023-02-22T06:24:43;12.10;82.60
57566;DHT22;63999;43.882;-0.310;2023-02-22T06:27:09;12.10;82.40
57566;DHT22;63999;43.882;-0.310;2023-02-22T06:29:35;12.10;82.70
57566;DHT22;63999;43.882;-0.310;2023-02-22T06:32:01;12.10;82.40
57566;DHT22;63999;43.882;-0.310;2023-02-22T06:34:26;12.10;82.50
57566;DHT22;63999;43.882;-0.310;2023-02-22T06:36:52;12.10;82.40
57566;DHT22;63999;43.882;-0.310;2023-02-22T06:39:18;12.10;82.50
57566;DHT22;63999;43.882;-0.310;2023-02-22T06:41:45;12.00;82.40
57566;DHT22;63999;43.882;-0.310;2023-02-22T06:44:13;12.10;82.10
57566;DHT22;63999;43.882;-0.310;2023-02-22T06:46:39;12.10;82.20
57566;DHT22;63999;43.882;-0.310;2023-02-22T06:49:04;12.10;82.20
57566;DHT22;63999;43.882;-0.310;2023-02-22T06:51:34;12.10;82.00
57566;DHT22;63999;43.882;-0.310;2023-02-22T06:54:01;12.10;82.10
57566;DHT22;63999;43.882;-0.310;2023-02-22T06:56:27;12.10;82.20
57566;DHT22;63999;43.882;-0.310;2023-02-22T06:58:53;12.10;82.20
57566;DHT22;63999;43.882;-0.310;2023-02-22T07:01:18;12.10;82.30
57566;DHT22;63999;43.882;-0.310;2023-02-22T07:03:44;12.10;82.30
57566;DHT22;63999;43.882;-0.310;2023-02-22T07:06:10;12.10;82.20
57566;DHT22;63999;43.882;-0.310;2023-02-22T07:08:36;12.10;82.30
57566;DHT22;63999;43.882;-0.310;2023-02-22T07:11:02;12.10;82.30
57566;DHT22;63999;43.882;-0.310;2023-02-22T07:13:28;12.10;82.10
57566;DHT22;63999;43.882;-0.310;2023-02-22T07:15:54;12.00;82.30
57566;DHT22;63999;43.882;-0.310;2023-02-22T07:18:20;12.00;82.50
57566;DHT22;63999;43.882;-0.310;2023-02-22T07:20:45;12.00;82.60
57566;DHT22;63999;43.882;-0.310;2023-02-22T07:23:15;12.00;82.80
57566;DHT22;63999;43.882;-0.310;2023-02-22T07:25:41;12.00;82.90
57566;DHT22;63999;43.882;-0.310;2023-02-22T07:28:07;12.00;82.90
57566;DHT22;63999;43.882;-0.310;2023-02-22T07:30:36;12.00;83.10
57566;DHT22;63999;43.882;-0.310;2023-02-22T07:33:05;12.00;83.20
57566;DHT22;63999;43.882;-0.310;2023-02-22T07:35:33;12.00;83.30
57566;DHT22;63999;43.882;-0.310;2023-02-22T07:38:02;12.00;83.30
57566;DHT22;63999;43.882;-0.310;2023-02-22T07:40:28;12.00;83.50
57566;DHT22;63999;43.882;-0.310;2023-02-22T07:42:56;12.00;83.60
57566;DHT22;63999;43.882;-0.310;2023-02-22T07:45:26;12.00;83.60
57566;DHT22;63999;43.882;-0.310;2023-02-22T07:47:53;12.00;83.80
57566;DHT22;63999;43.882;-0.310;2023-02-22T07:50:20;12.00;83.70
57566;DHT22;63999;43.882;-0.310;2023-02-22T07:52:48;12.00;83.80
57566;DHT22;63999;43.882;-0.310;2023-02-22T07:55:16;12.00;83.90
57566;DHT22;63999;43.882;-0.310;2023-02-22T07:57:46;12.00;84.00
57566;DHT22;63999;43.882;-0.310;2023-02-22T08:00:15;12.00;84.10
57566;DHT22;63999;43.882;-0.310;2023-02-22T08:02:42;12.00;84.10
57566;DHT22;63999;43.882;-0.310;2023-02-22T08:05:09;12.00;84.00
57566;DHT22;63999;43.882;-0.310;2023-02-22T08:07:38;11.90;83.90
57566;DHT22;63999;43.882;-0.310;2023-02-22T08:10:06;11.90;84.20
57566;DHT22;63999;43.882;-0.310;2023-02-22T08:12:33;11.90;84.20
57566;DHT22;63999;43.882;-0.310;2023-02-22T08:15:01;11.90;84.30
57566;DHT22;63999;43.882;-0.310;2023-02-22T08:17:26;11.90;84.10
57566;DHT22;63999;43.882;-0.310;2023-02-22T08:19:52;11.90;84.30
57566;DHT22;63999;43.882;-0.310;2023-02-22T08:22:18;11.90;84.20
57566;DHT22;63999;43.882;-0.310;2023-02-22T08:24:44;11.90;84.40
57566;DHT22;63999;43.882;-0.310;2023-02-22T08:27:10;11.90;84.40
57566;DHT22;63999;43.882;-0.310;2023-02-22T08:29:36;11.90;84.20
57566;DHT22;63999;43.882;-0.310;2023-02-22T08:32:02;11.90;84.10
57566;DHT22;63999;43.882;-0.310;2023-02-22T08:34:28;11.90;84.10
57566;DHT22;63999;43.882;-0.310;2023-02-22T08:36:54;11.90;84.00
57566;DHT22;63999;43.882;-0.310;2023-02-22T08:39:20;11.90;84.10
57566;DHT22;63999;43.882;-0.310;2023-02-22T08:41:47;11.90;84.20
57566;DHT22;63999;43.882;-0.310;2023-02-22T08:44:12;11.90;84.00
57566;DHT22;63999;43.882;-0.310;2023-02-22T08:46:38;11.90;84.00
57566;DHT22;63999;43.882;-0.310;2023-02-22T08:49:04;11.90;83.90
57566;DHT22;63999;43.882;-0.310;2023-02-22T08:51:36;11.90;83.80
57566;DHT22;63999;43.882;-0.310;2023-02-22T08:54:02;11.90;83.80
57566;DHT22;63999;43.882;-0.310;2023-02-22T08:56:29;11.90;83.70
57566;DHT22;63999;43.882;-0.310;2023-02-22T08:58:55;11.90;83.70
57566;DHT22;63999;43.882;-0.310;2023-02-22T09:01:22;11.90;83.70
57566;DHT22;63999;43.882;-0.310;2023-02-22T09:03:52;11.90;83.60
57566;DHT22;63999;43.882;-0.310;2023-02-22T09:06:18;11.90;83.50
57566;DHT22;63999;43.882;-0.310;2023-02-22T09:08:44;11.90;83.50
57566;DHT22;63999;43.882;-0.310;2023-02-22T09:11:10;11.90;83.50
57566;DHT22;63999;43.882;-0.310;2023-02-22T09:13:35;11.90;83.50
57566;DHT22;63999;43.882;-0.310;2023-02-22T09:16:01;11.90;83.40
57566;DHT22;63999;43.882;-0.310;2023-02-22T09:18:27;11.90;83.30
57566;DHT22;63999;43.882;-0.310;2023-02-22T09:20:54;11.90;83.40
57566;DHT22;63999;43.882;-0.310;2023-02-22T09:23:20;11.90;83.20
57566;DHT22;63999;43.882;-0.310;2023-02-22T09:25:49;11.90;83.30
57566;DHT22;63999;43.882;-0.310;2023-02-22T09:28:15;11.90;83.10
57566;DHT22;63999;43.882;-0.310;2023-02-22T09:30:41;11.90;83.20
57566;DHT22;63999;43.882;-0.310;2023-02-22T09:33:11;11.90;83.20
57566;DHT22;63999;43.882;-0.310;2023-02-22T09:35:38;11.90;83.20
57566;DHT22;63999;43.882;-0.310;2023-02-22T09:38:07;11.90;83.20
57566;DHT22;63999;43.882;-0.310;2023-02-22T09:40:36;11.90;83.10
57566;DHT22;63999;43.882;-0.310;2023-02-22T09:46:38;11.90;82.90
57566;DHT22;63999;43.882;-0.310;2023-02-22T09:51:47;11.90;82.90
57566;DHT22;63999;43.882;-0.310;2023-02-22T09:54:22;11.90;82.90
57566;DHT22;63999;43.882;-0.310;2023-02-22T09:56:52;11.90;82.90
57566;DHT22;63999;43.882;-0.310;2023-02-22T09:59:27;11.90;83.10
57566;DHT22;63999;43.882;-0.310;2023-02-22T10:02:27;11.90;83.10
57566;DHT22;63999;43.882;-0.310;2023-02-22T10:05:11;11.90;83.20
57566;DHT22;63999;43.882;-0.310;2023-02-22T10:07:43;11.90;83.40
57566;DHT22;63999;43.882;-0.310;2023-02-22T10:10:17;11.90;83.20
57566;DHT22;63999;43.882;-0.310;2023-02-22T10:18:41;11.90;83.50
57566;DHT22;63999;43.882;-0.310;2023-02-22T10:22:20;11.90;83.40
57566;DHT22;63999;43.882;-0.310;2023-02-22T10:27:22;12.00;83.50
57566;DHT22;63999;43.882;-0.310;2023-02-22T10:32:44;11.90;83.70
57566;DHT22;63999;43.882;-0.310;2023-02-22T10:35:22;12.00;83.70
57566;DHT22;63999;43.882;-0.310;2023-02-22T10:37:53;12.00;83.70
57566;DHT22;63999;43.882;-0.310;2023-02-22T10:40:23;12.00;83.80
57566;DHT22;63999;43.882;-0.310;2023-02-22T10:43:07;12.00;83.70
57566;DHT22;63999;43.882;-0.310;2023-02-22T10:45:35;12.00;83.80
57566;DHT22;63999;43.882;-0.310;2023-02-22T10:48:08;12.00;83.90
57566;DHT22;63999;43.882;-0.310;2023-02-22T10:50:38;12.00;83.70
57566;DHT22;63999;43.882;-0.310;2023-02-22T10:53:06;12.00;83.60
57566;DHT22;63999;43.882;-0.310;2023-02-22T10:55:35;12.00;83.90
57566;DHT22;63999;43.882;-0.310;2023-02-22T10:58:22;12.00;83.70
57566;DHT22;63999;43.882;-0.310;2023-02-22T11:00:48;12.00;83.50
57566;DHT22;63999;43.882;-0.310;2023-02-22T11:03:18;12.00;83.50
57566;DHT22;63999;43.882;-0.310;2023-02-22T11:05:45;12.00;83.50
57566;DHT22;63999;43.882;-0.310;2023-02-22T11:10:47;12.00;83.60
57566;DHT22;63999;43.882;-0.310;2023-02-22T11:13:36;12.00;83.60
57566;DHT22;63999;43.882;-0.310;2023-02-22T11:16:41;12.00;83.70
57566;DHT22;63999;43.882;-0.310;2023-02-22T11:21:46;12.00;83.60
57566;DHT22;63999;43.882;-0.310;2023-02-22T11:24:15;12.00;83.90
57566;DHT22;63999;43.882;-0.310;2023-02-22T11:26:47;12.00;83.70
57566;DHT22;63999;43.882;-0.310;2023-02-22T11:29:40;12.00;83.60
57566;DHT22;63999;43.882;-0.310;2023-02-22T11:32:17;12.00;83.40
57566;DHT22;63999;43.882;-0.310;2023-02-22T11:34:47;12.00;83.40
57566;DHT22;63999;43.882;-0.310;2023-02-22T11:37:30;12.00;83.40
57566;DHT22;63999;43.882;-0.310;2023-02-22T11:40:18;12.00;83.30
57566;DHT22;63999;43.882;-0.310;2023-02-22T11:42:45;12.10;83.50
57566;DHT22;63999;43.882;-0.310;2023-02-22T11:45:21;12.10;83.80
57566;DHT22;63999;43.882;-0.310;2023-02-22T11:47:55;12.10;83.40
57566;DHT22;63999;43.882;-0.310;2023-02-22T11:59:00;12.10;83.40
57566;DHT22;63999;43.882;-0.310;2023-02-22T12:01:47;12.10;83.40
57566;DHT22;63999;43.882;-0.310;2023-02-22T12:07:32;12.10;83.50
57566;DHT22;63999;43.882;-0.310;2023-02-22T12:10:32;12.10;83.40
57566;DHT22;63999;43.882;-0.310;2023-02-22T12:15:41;12.10;83.30
57566;DHT22;63999;43.882;-0.310;2023-02-22T12:21:02;12.10;83.40
57566;DHT22;63999;43.882;-0.310;2023-02-22T12:23:42;12.10;83.30
57566;DHT22;63999;43.882;-0.310;2023-02-22T12:26:35;12.10;83.30
57566;DHT22;63999;43.882;-0.310;2023-02-22T12:36:50;12.10;83.30
57566;DHT22;63999;43.882;-0.310;2023-02-22T12:39:28;12.10;83.50
57566;DHT22;63999;43.882;-0.310;2023-02-22T12:42:03;12.10;83.50
57566;DHT22;63999;43.882;-0.310;2023-02-22T12:44:37;12.10;83.50
57566;DHT22;63999;43.882;-0.310;2023-02-22T12:47:05;12.10;83.70
57566;DHT22;63999;43.882;-0.310;2023-02-22T12:50:31;12.20;83.70
57566;DHT22;63999;43.882;-0.310;2023-02-22T12:53:01;12.20;83.70
57566;DHT22;63999;43.882;-0.310;2023-02-22T12:55:37;12.20;83.70
57566;DHT22;63999;43.882;-0.310;2023-02-22T12:58:08;12.20;84.10
57566;DHT22;63999;43.882;-0.310;2023-02-22T13:00:43;12.20;84.10
57566;DHT22;63999;43.882;-0.310;2023-02-22T13:05:40;12.20;84.10
57566;DHT22;63999;43.882;-0.310;2023-02-22T13:11:00;12.20;83.60
57566;DHT22;63999;43.882;-0.310;2023-02-22T13:21:54;12.20;83.80
57566;DHT22;63999;43.882;-0.310;2023-02-22T13:25:15;12.20;83.70
57566;DHT22;63999;43.882;-0.310;2023-02-22T13:28:08;12.20;83.60
57566;DHT22;63999;43.882;-0.310;2023-02-22T13:30:47;12.20;83.50
57566;DHT22;63999;43.882;-0.310;2023-02-22T13:36:47;12.20;83.70
57566;DHT22;63999;43.882;-0.310;2023-02-22T13:39:42;12.20;83.80
57566;DHT22;63999;43.882;-0.310;2023-02-22T13:42:42;12.20;83.70
57566;DHT22;63999;43.882;-0.310;2023-02-22T13:48:36;12.20;84.00
57566;DHT22;63999;43.882;-0.310;2023-02-22T13:53:51;12.20;84.10
57566;DHT22;63999;43.882;-0.310;2023-02-22T13:56:21;12.30;84.20
57566;DHT22;63999;43.882;-0.310;2023-02-22T13:58:58;12.20;83.90
57566;DHT22;63999;43.882;-0.310;2023-02-22T14:01:45;12.30;84.00
57566;DHT22;63999;43.882;-0.310;2023-02-22T14:06:56;12.20;84.10
57566;DHT22;63999;43.882;-0.310;2023-02-22T14:09:51;12.30;84.00
57566;DHT22;63999;43.882;-0.310;2023-02-22T14:15:16;12.30;84.10
57566;DHT22;63999;43.882;-0.310;2023-02-22T14:17:47;12.30;83.90
57566;DHT22;63999;43.882;-0.310;2023-02-22T14:20:18;12.30;84.00
57566;DHT22;63999;43.882;-0.310;2023-02-22T14:22:47;12.30;84.00
57566;DHT22;63999;43.882;-0.310;2023-02-22T14:27:54;12.20;84.00
57566;DHT22;63999;43.882;-0.310;2023-02-22T14:30:29;12.30;84.10
57566;DHT22;63999;43.882;-0.310;2023-02-22T14:32:56;12.30;83.90
57566;DHT22;63999;43.882;-0.310;2023-02-22T14:35:23;12.20;83.80
57566;DHT22;63999;43.882;-0.310;2023-02-22T14:37:54;12.20;83.90
57566;DHT22;63999;43.882;-0.310;2023-02-22T14:40:35;12.30;84.00
57566;DHT22;63999;43.882;-0.310;2023-02-22T14:43:18;12.30;84.10
57566;DHT22;63999;43.882;-0.310;2023-02-22T14:45:50;12.30;84.00
57566;DHT22;63999;43.882;-0.310;2023-02-22T14:48:29;12.30;84.10
57566;DHT22;63999;43.882;-0.310;2023-02-22T14:51:12;12.30;84.10
57566;DHT22;63999;43.882;-0.310;2023-02-22T14:53:45;12.30;84.10
57566;DHT22;63999;43.882;-0.310;2023-02-22T14:56:22;12.30;83.90
57566;DHT22;63999;43.882;-0.310;2023-02-22T15:01:47;12.30;84.00
57566;DHT22;63999;43.882;-0.310;2023-02-22T15:04:23;12.30;84.10
57566;DHT22;63999;43.882;-0.310;2023-02-22T15:06:51;12.30;84.20
57566;DHT22;63999;43.882;-0.310;2023-02-22T15:09:29;12.30;84.10
57566;DHT22;63999;43.882;-0.310;2023-02-22T15:14:28;12.30;83.90
57566;DHT22;63999;43.882;-0.310;2023-02-22T15:17:00;12.40;84.00
57566;DHT22;63999;43.882;-0.310;2023-02-22T15:19:30;12.30;83.80
57566;DHT22;63999;43.882;-0.310;2023-02-22T15:21:58;12.30;83.90
57566;DHT22;63999;43.882;-0.310;2023-02-22T15:24:36;12.40;84.00
57566;DHT22;63999;43.882;-0.310;2023-02-22T15:27:20;12.40;84.10
57566;DHT22;63999;43.882;-0.310;2023-02-22T15:29:46;12.40;84.20
57566;DHT22;63999;43.882;-0.310;2023-02-22T15:32:29;12.40;84.00
57566;DHT22;63999;43.882;-0.310;2023-02-22T15:35:11;12.40;84.00
57566;DHT22;63999;43.882;-0.310;2023-02-22T15:37:37;12.40;84.10
57566;DHT22;63999;43.882;-0.310;2023-02-22T15:40:13;12.30;84.20
57566;DHT22;63999;43.882;-0.310;2023-02-22T15:42:50;12.40;84.10
57566;DHT22;63999;43.882;-0.310;2023-02-22T15:45:23;12.40;84.10
57566;DHT22;63999;43.882;-0.310;2023-02-22T15:47:51;12.40;84.10
57566;DHT22;63999;43.882;-0.310;2023-02-22T15:52:58;12.50;84.00
57566;DHT22;63999;43.882;-0.310;2023-02-22T15:55:45;12.50;84.10
57566;DHT22;63999;43.882;-0.310;2023-02-22T16:00:46;12.50;84.20
57566;DHT22;63999;43.882;-0.310;2023-02-22T16:03:19;12.50;84.20
57566;DHT22;63999;43.882;-0.310;2023-02-22T16:05:53;12.50;84.30
57566;DHT22;63999;43.882;-0.310;2023-02-22T16:08:34;12.50;84.30
57566;DHT22;63999;43.882;-0.310;2023-02-22T16:11:08;12.50;84.00
57566;DHT22;63999;43.882;-0.310;2023-02-22T16:13:38;12.50;84.00
57566;DHT22;63999;43.882;-0.310;2023-02-22T16:16:21;12.50;83.90
57566;DHT22;63999;43.882;-0.310;2023-02-22T16:18:49;12.50;84.00
57566;DHT22;63999;43.882;-0.310;2023-02-22T16:21:19;12.50;84.00
57566;DHT22;63999;43.882;-0.310;2023-02-22T16:23:54;12.50;84.00
57566;DHT22;63999;43.882;-0.310;2023-02-22T16:26:33;12.50;84.00
57566;DHT22;63999;43.882;-0.310;2023-02-22T16:29:05;12.50;84.00
57566;DHT22;63999;43.882;-0.310;2023-02-22T16:31:34;12.50;84.10
57566;DHT22;63999;43.882;-0.310;2023-02-22T16:34:05;12.50;84.10
57566;DHT22;63999;43.882;-0.310;2023-02-22T16:41:43;12.50;84.20
57566;DHT22;63999;43.882;-0.310;2023-02-22T16:44:13;12.50;84.10
57566;DHT22;63999;43.882;-0.310;2023-02-22T16:46:40;12.50;84.30
57566;DHT22;63999;43.882;-0.310;2023-02-22T16:49:09;12.50;84.50
57566;DHT22;63999;43.882;-0.310;2023-02-22T16:51:45;12.50;84.60
57566;DHT22;63999;43.882;-0.310;2023-02-22T16:54:16;12.50;84.40
57566;DHT22;63999;43.882;-0.310;2023-02-22T16:56:43;12.50;84.10
57566;DHT22;63999;43.882;-0.310;2023-02-22T16:59:12;12.50;84.30
57566;DHT22;63999;43.882;-0.310;2023-02-22T17:01:39;12.50;84.20
57566;DHT22;63999;43.882;-0.310;2023-02-22T17:04:13;12.50;84.30
57566;DHT22;63999;43.882;-0.310;2023-02-22T17:06:39;12.50;84.20
57566;DHT22;63999;43.882;-0.310;2023-02-22T17:09:05;12.50;84.30
57566;DHT22;63999;43.882;-0.310;2023-02-22T17:11:32;12.50;84.10
57566;DHT22;63999;43.882;-0.310;2023-02-22T17:13:58;12.50;84.20
57566;DHT22;63999;43.882;-0.310;2023-02-22T17:16:24;12.50;84.10
57566;DHT22;63999;43.882;-0.310;2023-02-22T17:18:49;12.50;84.10
57566;DHT22;63999;43.882;-0.310;2023-02-22T17:21:16;12.50;84.20
57566;DHT22;63999;43.882;-0.310;2023-02-22T17:23:42;12.50;84.30
57566;DHT22;63999;43.882;-0.310;2023-02-22T17:26:12;12.50;84.30
57566;DHT22;63999;43.882;-0.310;2023-02-22T17:28:40;12.50;84.10
57566;DHT22;63999;43.882;-0.310;2023-02-22T17:31:20;12.50;84.20
57566;DHT22;63999;43.882;-0.310;2023-02-22T17:33:46;12.50;84.10
57566;DHT22;63999;43.882;-0.310;2023-02-22T17:36:12;12.50;84.00
57566;DHT22;63999;43.882;-0.310;2023-02-22T17:38:38;12.50;84.10
57566;DHT22;63999;43.882;-0.310;2023-02-22T17:41:07;12.50;84.10
57566;DHT22;63999;43.882;-0.310;2023-02-22T17:43:33;12.50;84.20
57566;DHT22;63999;43.882;-0.310;2023-02-22T17:45:59;12.50;84.20
57566;DHT22;63999;43.882;-0.310;2023-02-22T17:48:25;12.50;84.20